Time;durP1;ratioP1;P1;durP2;ratioP2;P2;SDS_P1;SDS_P2;PMS_P1;PMS_P2;Temp;Humidity;BMP_temperature;BMP_pressure;BME280_temperature;BME280_humidity;BME280_pressure;Samples;Min_cycle;Max_cycle;Signal;HPM_P1;HPM_P2
2022/03/16 00:01:05;;;;;;;169.70;59.92;;;3.70;99.90;;;;;;4980131;28;20054;-85
2022/03/16 00:07:49;;;;;;;155.80;57.47;;;3.80;99.90;;;;;;4997370;28;20049;-85
2022/03/16 00:10:15;;;;;;;128.70;53.40;;;3.90;99.90;;;;;;4964095;28;20109;-86
2022/03/16 00:12:42;;;;;;;127.85;52.45;;;3.90;99.90;;;;;;4964228;28;20050;-86
2022/03/16 00:15:10;;;;;;;115.00;50.03;;;3.80;99.90;;;;;;4977458;28;20077;-86
2022/03/16 00:21:28;;;;;;;153.07;55.17;;;3.80;99.90;;;;;;4977620;28;20113;-86
2022/03/16 00:27:35;;;;;;;134.77;53.75;;;3.70;99.90;;;;;;4977557;28;20038;-86
2022/03/16 00:33:42;;;;;;;151.32;56.17;;;3.80;99.90;;;;;;4977434;28;20034;-85
2022/03/16 00:39:48;;;;;;;111.97;48.45;;;3.70;99.90;;;;;;4977297;28;20046;-86
2022/03/16 00:45:58;;;;;;;104.65;46.45;;;3.60;99.90;;;;;;4977071;28;20082;-86
2022/03/16 00:48:24;;;;;;;110.00;46.85;;;3.50;99.90;;;;;;4928374;28;20043;-86
2022/03/16 00:50:50;;;;;;;89.43;43.42;;;3.50;99.90;;;;;;4944226;28;20109;-86
2022/03/16 00:53:15;;;;;;;85.22;40.40;;;3.30;99.90;;;;;;4959383;28;20130;-86
2022/03/16 00:55:41;;;;;;;89.70;40.35;;;3.20;99.90;;;;;;4946805;28;20072;-87
2022/03/16 00:58:07;;;;;;;98.57;43.97;;;3.10;99.90;;;;;;4947532;28;20066;-86
2022/03/16 01:00:32;;;;;;;119.13;48.58;;;3.10;99.90;;;;;;4973966;28;20506;-86
2022/03/16 01:02:58;;;;;;;110.93;47.88;;;3.10;99.90;;;;;;4963264;28;20065;-86
2022/03/16 01:05:24;;;;;;;133.10;51.63;;;3.10;99.90;;;;;;4976966;28;20096;-86
2022/03/16 01:07:50;;;;;;;122.03;50.05;;;3.10;99.90;;;;;;4978456;28;20054;-85
2022/03/16 01:10:16;;;;;;;141.48;51.10;;;3.10;99.90;;;;;;4985768;28;20046;-87
2022/03/16 01:12:42;;;;;;;130.85;53.38;;;3.20;99.90;;;;;;4990609;28;20392;-86
2022/03/16 01:15:09;;;;;;;120.63;49.97;;;3.20;99.90;;;;;;4977619;28;20377;-93
2022/03/16 01:17:34;;;;;;;151.85;53.33;;;3.20;99.90;;;;;;4962886;28;20054;-86
2022/03/16 01:20:00;;;;;;;123.20;51.40;;;3.30;99.90;;;;;;4962791;28;20400;-86
2022/03/16 01:22:26;;;;;;;184.70;60.45;;;3.30;99.90;;;;;;4962408;28;20046;-86
2022/03/16 01:24:54;;;;;;;145.73;56.03;;;3.30;99.90;;;;;;4995152;28;20043;-85
2022/03/16 01:31:02;;;;;;;176.23;57.95;;;3.50;99.90;;;;;;4976381;28;20034;-85
2022/03/16 01:37:10;;;;;;;150.20;56.80;;;3.60;99.90;;;;;;4976137;28;20393;-85
2022/03/16 01:39:36;;;;;;;158.50;57.05;;;3.60;99.90;;;;;;4975025;28;20073;-86
2022/03/16 01:42:02;;;;;;;167.38;57.53;;;3.60;99.90;;;;;;4959123;28;20042;-86
2022/03/16 01:44:51;;;;;;;171.85;56.97;;;3.60;99.90;;;;;;4972457;28;20483;-85
2022/03/16 01:47:19;;;;;;;162.88;58.45;;;3.60;99.90;;;;;;4978061;28;20054;-84
2022/03/16 01:49:45;;;;;;;168.27;59.50;;;3.60;99.90;;;;;;4977939;28;20042;-86
2022/03/16 01:52:15;;;;;;;151.30;58.20;;;3.70;99.90;;;;;;5007404;28;20045;-85
2022/03/16 01:54:41;;;;;;;156.10;54.80;;;3.60;99.90;;;;;;4993195;28;20092;-87
2022/03/16 01:57:11;;;;;;;135.85;52.53;;;3.50;99.90;;;;;;4977071;28;20125;-86
2022/03/16 01:59:38;;;;;;;142.13;51.08;;;3.50;99.90;;;;;;4993579;28;20086;-85
2022/03/16 02:02:08;;;;;;;133.52;49.67;;;3.40;99.90;;;;;;4993661;28;20372;-86
2022/03/16 02:04:34;;;;;;;130.40;49.88;;;3.30;99.90;;;;;;4991686;28;20066;-87
2022/03/16 02:07:00;;;;;;;164.13;53.35;;;3.30;99.90;;;;;;4974969;28;20054;-85
2022/03/16 02:09:26;;;;;;;146.85;54.90;;;3.20;99.90;;;;;;4976872;28;20042;-86
2022/03/16 02:11:52;;;;;;;132.48;50.10;;;3.20;99.90;;;;;;4977259;28;20055;-86
2022/03/16 02:17:59;;;;;;;154.95;52.80;;;3.30;99.90;;;;;;4994062;28;20048;-86
2022/03/16 02:20:27;;;;;;;147.65;52.22;;;3.10;99.90;;;;;;4992570;28;20539;-86
2022/03/16 02:22:57;;;;;;;121.82;48.40;;;3.20;99.90;;;;;;4993494;28;20057;-86
2022/03/16 02:25:25;;;;;;;145.80;51.33;;;3.30;99.90;;;;;;4977033;28;20039;-87
2022/03/16 02:27:54;;;;;;;181.32;54.92;;;3.20;99.90;;;;;;4993144;28;20050;-85
2022/03/16 02:30:50;;;;;;;119.93;49.72;;;3.30;99.90;;;;;;4977333;28;20053;-86
2022/03/16 02:37:12;;;;;;;128.82;48.58;;;3.30;99.90;;;;;;4993728;28;20041;-85
2022/03/16 02:39:38;;;;;;;114.20;46.80;;;3.20;99.90;;;;;;4976852;28;20049;-86
2022/03/16 02:42:05;;;;;;;159.30;50.28;;;3.10;99.90;;;;;;4976855;28;20043;-86
2022/03/16 02:44:39;;;;;;;112.60;46.00;;;3.00;99.90;;;;;;4976498;28;20050;-85
2022/03/16 02:51:14;;;;;;;129.38;47.83;;;2.90;99.90;;;;;;5013877;28;20168;-86
2022/03/16 02:57:40;;;;;;;119.75;43.95;;;2.70;99.90;;;;;;5013155;28;20048;-85
2022/03/16 03:04:07;;;;;;;111.65;44.15;;;2.70;99.90;;;;;;4975235;28;1099435;-85
2022/03/16 03:06:32;;;;;;;105.85;44.78;;;2.70;99.90;;;;;;5013346;28;20056;-85
2022/03/16 03:08:58;;;;;;;117.35;45.80;;;2.70;99.90;;;;;;4980185;28;20442;-85
2022/03/16 03:11:25;;;;;;;125.10;46.10;;;2.60;99.90;;;;;;4972157;28;20101;-85
2022/03/16 03:13:50;;;;;;;100.70;43.13;;;2.60;99.90;;;;;;4996537;28;20484;-86
2022/03/16 03:16:16;;;;;;;124.00;46.53;;;2.60;99.90;;;;;;4980630;28;20057;-86
2022/03/16 03:18:42;;;;;;;96.00;41.63;;;2.50;99.90;;;;;;5013570;28;20537;-87
2022/03/16 03:25:21;;;;;;;111.28;34.05;;;2.40;99.90;;;;;;5013533;28;20049;-86
2022/03/16 03:27:46;;;;;;;78.10;35.08;;;2.30;99.90;;;;;;4980466;28;20522;-86
2022/03/16 03:30:12;;;;;;;82.97;35.25;;;2.30;99.90;;;;;;4980431;28;20046;-86
2022/03/16 03:36:06;;;;;;;126.38;31.23;;;2.30;99.90;;;;;;5000649;28;20153;-85
2022/03/16 03:38:32;;;;;;;146.43;33.00;;;2.30;99.90;;;;;;4984052;28;20132;-85
2022/03/16 03:41:33;;;;;;;124.18;34.20;;;2.30;99.90;;;;;;5000444;28;20099;-86
2022/03/16 03:47:59;;;;;;;130.70;30.25;;;2.30;99.90;;;;;;5017263;28;20095;-86
2022/03/16 03:54:06;;;;;;;96.57;29.50;;;2.20;99.90;;;;;;5017225;28;20087;-87
2022/03/16 03:56:32;;;;;;;189.00;32.30;;;2.10;99.90;;;;;;4983779;28;20045;-85
2022/03/16 03:58:58;;;;;;;276.83;36.78;;;2.10;99.90;;;;;;4980432;28;20079;-86
2022/03/16 04:09:04;;;;;;;161.48;36.35;;;1.90;99.90;;;;;;4977758;28;20081;-86
2022/03/16 04:11:51;;;;;;;125.15;34.67;;;1.70;99.90;;;;;;4960624;28;20039;-86
2022/03/16 04:14:16;;;;;;;;;;;1.70;99.90;;;;;;4945169;28;20089;-85
2022/03/16 04:16:42;;;;;;;65.63;31.57;;;1.60;99.90;;;;;;4944721;28;19957;-86
2022/03/16 04:19:10;;;;;;;59.92;31.20;;;1.60;99.90;;;;;;4945252;28;20093;-86
2022/03/16 04:25:25;;;;;;;53.70;28.77;;;1.40;99.90;;;;;;4977414;28;20558;-85
2022/03/16 04:31:33;;;;;;;56.45;30.30;;;1.30;99.90;;;;;;4977346;28;20034;-86
2022/03/16 04:38:02;;;;;;;57.33;29.80;;;1.30;99.90;;;;;;4977298;28;20042;-85
2022/03/16 04:44:21;;;;;;;87.30;36.47;;;1.20;99.90;;;;;;4976728;28;20037;-86
2022/03/16 04:51:08;;;;;;;66.88;32.10;;;1.20;99.90;;;;;;4977277;28;20041;-85
2022/03/16 04:57:01;;;;;;;70.47;32.88;;;1.20;99.90;;;;;;4970593;28;20515;-85
2022/03/16 04:59:27;;;;;;;83.72;36.60;;;1.20;99.90;;;;;;4995572;28;20046;-86
2022/03/16 05:02:18;;;;;;;86.63;37.65;;;1.20;99.90;;;;;;4979373;28;20476;-85
2022/03/16 05:04:43;;;;;;;82.63;37.45;;;1.20;99.90;;;;;;4962514;28;20096;-86
2022/03/16 05:07:41;;;;;;;116.07;42.92;;;1.20;99.90;;;;;;4979924;28;20047;-86
2022/03/16 05:10:07;;;;;;;93.68;41.75;;;1.20;99.90;;;;;;4963165;28;20061;-86
2022/03/16 05:16:00;;;;;;;143.18;47.25;;;1.50;99.90;;;;;;4978921;28;20053;-86
2022/03/16 05:18:26;;;;;;;130.95;47.92;;;1.60;99.90;;;;;;4978325;28;20124;-86
2022/03/16 05:20:57;;;;;;;109.85;44.97;;;1.70;99.90;;;;;;4962416;28;20109;-87
2022/03/16 05:27:05;;;;;;;153.93;47.70;;;1.80;99.90;;;;;;4995764;28;20049;-86
2022/03/16 05:33:24;;;;;;;193.45;49.00;;;1.90;99.90;;;;;;4995669;28;20098;-86
2022/03/16 05:39:33;;;;;;;104.93;42.40;;;2.00;99.90;;;;;;4995101;28;20060;-84
2022/03/16 05:45:57;;;;;;;140.63;46.75;;;2.10;99.90;;;;;;4995113;28;20049;-85
2022/03/16 05:48:23;;;;;;;135.65;47.58;;;2.20;99.90;;;;;;4950797;28;20034;-82
2022/03/16 05:50:49;;;;;;;98.15;44.30;;;2.30;99.90;;;;;;4925657;28;20061;-85
2022/03/16 05:53:15;;;;;;;87.18;42.33;;;2.30;99.90;;;;;;4940948;28;20093;-85
2022/03/16 05:55:41;;;;;;;87.13;42.50;;;2.30;99.90;;;;;;4954460;28;20105;-86
2022/03/16 05:58:07;;;;;;;70.68;38.92;;;2.40;99.90;;;;;;4958527;28;20105;-85
2022/03/16 06:00:35;;;;;;;82.53;42.13;;;2.50;99.90;;;;;;4922383;28;20078;-84
2022/03/16 06:03:01;;;;;;;76.38;39.47;;;2.60;99.90;;;;;;4957488;28;20112;-85
2022/03/16 06:05:27;;;;;;;77.85;39.05;;;2.60;99.90;;;;;;4958829;28;20081;-86
2022/03/16 06:07:56;;;;;;;96.90;43.33;;;2.60;99.90;;;;;;4978024;28;20133;-87
2022/03/16 06:10:22;;;;;;;85.93;41.35;;;2.60;99.90;;;;;;4988665;28;20038;-89
2022/03/16 06:13:16;;;;;;;95.93;42.40;;;2.70;99.90;;;;;;4960360;28;20057;-85
2022/03/16 06:15:44;;;;;;;87.50;41.17;;;2.70;99.90;;;;;;4949155;28;20038;-86
2022/03/16 06:18:13;;;;;;;70.88;38.42;;;2.70;99.90;;;;;;4974069;28;20101;-87
2022/03/16 06:20:39;;;;;;;78.13;39.90;;;2.80;99.90;;;;;;4960992;28;20050;-84
2022/03/16 06:23:05;;;;;;;81.35;40.55;;;2.90;99.90;;;;;;4961242;28;20373;-90
2022/03/16 06:25:36;;;;;;;82.30;40.97;;;2.90;99.90;;;;;;4958184;28;20088;-91
2022/03/16 06:28:02;;;;;;;78.47;40.22;;;3.00;99.90;;;;;;4997887;28;20053;-84
2022/03/16 06:30:28;;;;;;;98.93;45.80;;;3.00;99.90;;;;;;4958255;28;20479;-87
2022/03/16 06:32:54;;;;;;;84.57;42.28;;;3.10;99.90;;;;;;4962556;28;20550;-85
2022/03/16 06:35:58;;;;;;;77.78;40.00;;;3.20;99.90;;;;;;4978840;28;20054;-84
2022/03/16 06:38:24;;;;;;;89.75;42.60;;;3.30;99.90;;;;;;4975288;28;20046;-84
2022/03/16 06:40:50;;;;;;;82.25;42.05;;;3.30;99.90;;;;;;4985560;28;20104;-84
2022/03/16 06:43:16;;;;;;;87.68;44.03;;;3.40;99.90;;;;;;4961997;28;20054;-86
2022/03/16 06:45:41;;;;;;;104.45;47.17;;;3.50;99.90;;;;;;4975925;28;20042;-85
2022/03/16 06:48:07;;;;;;;99.13;48.80;;;3.50;99.90;;;;;;4960309;28;20492;-84
2022/03/16 06:50:33;;;;;;;94.68;47.05;;;3.60;99.90;;;;;;4959949;28;20050;-88
2022/03/16 06:52:59;;;;;;;108.20;49.72;;;3.80;99.90;;;;;;4975468;28;20050;-84
2022/03/16 06:55:26;;;;;;;87.57;44.17;;;3.90;99.90;;;;;;4959860;28;20046;-85
2022/03/16 06:57:52;;;;;;;84.15;43.65;;;3.90;99.90;;;;;;4959830;28;20042;-85
2022/03/16 07:00:18;;;;;;;83.30;42.80;;;4.10;99.90;;;;;;4958262;28;20435;-85
2022/03/16 07:02:59;;;;;;;97.43;46.80;;;4.20;99.90;;;;;;4975161;28;20160;-85
2022/03/16 07:05:36;;;;;;;95.53;45.35;;;4.30;99.90;;;;;;4975570;28;20145;-85
2022/03/16 07:08:04;;;;;;;81.15;42.00;;;4.30;99.90;;;;;;4975828;28;20459;-85
2022/03/16 07:10:31;;;;;;;91.97;44.40;;;4.50;99.90;;;;;;4959666;28;20093;-85
2022/03/16 07:12:57;;;;;;;89.95;42.97;;;4.50;99.90;;;;;;4975035;28;20496;-86
2022/03/16 07:15:24;;;;;;;97.47;46.45;;;4.60;99.90;;;;;;4943376;28;20054;-84
2022/03/16 07:17:49;;;;;;;91.47;44.47;;;4.60;99.90;;;;;;4975647;28;20051;-84
2022/03/16 07:20:15;;;;;;;97.25;45.85;;;4.70;99.90;;;;;;4943637;28;20388;-84
2022/03/16 07:22:41;;;;;;;95.88;46.13;;;4.80;99.90;;;;;;4943670;28;20050;-85
2022/03/16 07:25:11;;;;;;;88.68;44.72;;;4.80;99.90;;;;;;4942869;28;20519;-85
2022/03/16 07:27:38;;;;;;;89.68;43.58;;;4.90;99.90;;;;;;4975595;28;20058;-86
2022/03/16 07:30:08;;;;;;;86.65;44.78;;;5.00;99.90;;;;;;4959908;28;20408;-85
2022/03/16 07:32:41;;;;;;;80.65;43.42;;;5.10;99.90;;;;;;4975993;28;20144;-89
2022/03/16 07:35:09;;;;;;;73.25;39.88;;;5.20;99.90;;;;;;4959928;28;20058;-84
2022/03/16 07:37:36;;;;;;;73.15;40.92;;;5.30;99.90;;;;;;4944477;28;20054;-89
2022/03/16 07:40:03;;;;;;;83.72;43.95;;;5.50;99.90;;;;;;4959721;28;20053;-84
2022/03/16 07:42:30;;;;;;;74.90;43.17;;;5.50;99.90;;;;;;4959801;28;20484;-84
2022/03/16 07:44:59;;;;;;;66.55;37.90;;;5.70;99.90;;;;;;4959408;28;20038;-84
2022/03/16 07:47:26;;;;;;;69.72;39.72;;;5.80;99.90;;;;;;4960167;28;20483;-84
2022/03/16 07:49:52;;;;;;;67.00;38.80;;;5.80;99.90;;;;;;4944215;28;20133;-84
2022/03/16 07:52:20;;;;;;;62.30;38.08;;;6.00;99.90;;;;;;4959897;28;20514;-85
2022/03/16 07:54:45;;;;;;;62.97;39.13;;;6.10;99.90;;;;;;4960419;28;20054;-86
2022/03/16 07:57:11;;;;;;;67.93;40.50;;;6.20;99.90;;;;;;4944092;28;20042;-84
2022/03/16 07:59:37;;;;;;;71.97;40.15;;;6.30;99.90;;;;;;4976120;28;20057;-88
2022/03/16 08:02:03;;;;;;;67.68;38.63;;;6.50;99.90;;;;;;4975539;28;20124;-88
2022/03/16 08:04:29;;;;;;;64.72;38.33;;;6.60;99.90;;;;;;4975658;28;20074;-84
2022/03/16 08:06:54;;;;;;;62.22;38.55;;;6.60;99.90;;;;;;4943923;28;20142;-83
2022/03/16 08:09:20;;;;;;;58.33;36.35;;;6.70;99.90;;;;;;4943626;28;20042;-84
2022/03/16 08:11:46;;;;;;;60.85;36.55;;;6.70;99.90;;;;;;4943702;28;20136;-84
2022/03/16 08:14:12;;;;;;;54.72;34.45;;;6.80;99.90;;;;;;4959624;28;20088;-84
2022/03/16 08:16:39;;;;;;;57.95;35.15;;;6.80;99.90;;;;;;4943620;28;20043;-85
2022/03/16 08:19:04;;;;;;;53.42;34.90;;;6.90;99.90;;;;;;4977756;28;20101;-84
2022/03/16 08:21:30;;;;;;;54.67;34.55;;;6.90;99.90;;;;;;4962698;28;20503;-86
2022/03/16 08:23:56;;;;;;;51.28;33.10;;;6.80;99.90;;;;;;4947327;28;20137;-84
2022/03/16 08:26:23;;;;;;;46.60;32.60;;;6.90;99.90;;;;;;4962593;28;20039;-84
2022/03/16 08:28:49;;;;;;;54.33;32.72;;;6.90;99.90;;;;;;4994918;28;20057;-83
2022/03/16 08:31:15;;;;;;;48.10;32.15;;;6.90;99.90;;;;;;4962546;28;20046;-84
2022/03/16 08:33:41;;;;;;;52.67;33.35;;;6.90;99.90;;;;;;4962703;28;20093;-84
2022/03/16 08:36:08;;;;;;;52.42;33.08;;;6.90;99.90;;;;;;4979072;28;20487;-84
2022/03/16 08:38:37;;;;;;;54.92;34.30;;;7.00;99.90;;;;;;4962492;28;20046;-83
2022/03/16 08:41:07;;;;;;;53.00;33.15;;;7.00;99.90;;;;;;4978854;28;20070;-85
2022/03/16 08:43:37;;;;;;;53.00;34.45;;;7.10;99.90;;;;;;4962694;28;20042;-84
2022/03/16 08:46:03;;;;;;;51.95;33.28;;;7.10;99.90;;;;;;4978738;28;20089;-84
2022/03/16 08:48:29;;;;;;;52.97;31.63;;;7.20;99.90;;;;;;4978916;28;22788;-84
2022/03/16 08:50:55;;;;;;;52.38;31.98;;;7.20;99.90;;;;;;4962519;28;20054;-85
2022/03/16 08:53:21;;;;;;;50.35;32.33;;;7.30;99.90;;;;;;4962784;28;20211;-84
2022/03/16 08:55:47;;;;;;;51.45;33.88;;;7.30;99.90;;;;;;4947050;28;20049;-84
2022/03/16 08:58:15;;;;;;;51.17;33.42;;;7.40;99.90;;;;;;4978155;28;20544;-84
2022/03/16 09:00:42;;;;;;;52.55;33.45;;;7.40;99.90;;;;;;4962100;28;20046;-86
2022/03/16 09:03:11;;;;;;;52.80;34.00;;;7.50;99.90;;;;;;4977643;28;20042;-84
2022/03/16 09:05:37;;;;;;;54.08;33.03;;;7.70;99.90;;;;;;4962504;28;20090;-84
2022/03/16 09:08:03;;;;;;;49.13;32.65;;;7.80;99.90;;;;;;4946217;28;20092;-84
2022/03/16 09:10:29;;;;;;;51.58;32.75;;;7.90;99.90;;;;;;4962346;28;20163;-84
2022/03/16 09:12:55;;;;;;;47.25;31.80;;;8.10;99.90;;;;;;4961744;28;20113;-83
2022/03/16 09:15:21;;;;;;;50.88;31.77;;;8.20;99.90;;;;;;4961899;28;20038;-84
2022/03/16 09:17:46;;;;;;;46.08;29.77;;;8.30;99.90;;;;;;4960925;28;20054;-86
2022/03/16 09:20:12;;;;;;;44.05;29.00;;;8.50;99.90;;;;;;4941614;28;20101;-84
2022/03/16 09:22:38;;;;;;;42.85;28.70;;;8.50;99.90;;;;;;4942376;28;20416;-84
2022/03/16 09:25:04;;;;;;;41.15;27.10;;;8.70;99.90;;;;;;4941676;28;20444;-86
2022/03/16 09:27:30;;;;;;;38.85;27.88;;;8.80;99.90;;;;;;4957090;28;20042;-86
2022/03/16 09:29:55;;;;;;;41.88;26.33;;;8.90;99.90;;;;;;4942640;28;20089;-84
2022/03/16 09:32:22;;;;;;;36.63;24.63;;;9.10;99.90;;;;;;4976765;28;20101;-84
2022/03/16 09:34:49;;;;;;;38.22;23.42;;;9.30;99.90;;;;;;4960450;28;20054;-84
2022/03/16 09:37:16;;;;;;;39.35;23.38;;;9.40;99.90;;;;;;4940866;28;20047;-85
2022/03/16 09:39:41;;;;;;;29.77;21.02;;;9.50;99.90;;;;;;4940416;28;20101;-92
2022/03/16 09:42:09;;;;;;;33.95;20.80;;;9.70;99.90;;;;;;4972248;28;20058;-86
2022/03/16 09:44:36;;;;;;;31.38;20.48;;;9.80;99.90;;;;;;4957374;28;20047;-85
2022/03/16 09:47:04;;;;;;;28.90;19.88;;;10.00;99.90;;;;;;4958331;28;20072;-85
2022/03/16 09:49:30;;;;;;;30.20;19.40;;;10.30;99.90;;;;;;4993299;28;20054;-83
2022/03/16 09:51:57;;;;;;;29.23;18.00;;;10.50;99.90;;;;;;4960598;28;20557;-84
2022/03/16 09:54:24;;;;;;;25.80;17.55;;;10.80;99.90;;;;;;4961333;28;20050;-85
2022/03/16 09:56:49;;;;;;;26.83;17.20;;;11.00;99.90;;;;;;4944329;28;20057;-84
2022/03/16 09:59:15;;;;;;;26.58;16.65;;;11.30;99.90;;;;;;4960138;28;20038;-84
2022/03/16 10:01:44;;;;;;;26.20;16.95;;;11.50;99.90;;;;;;4993060;28;20044;-84
2022/03/16 10:04:10;;;;;;;23.70;15.05;;;11.70;99.90;;;;;;4976846;28;20170;-85
2022/03/16 10:06:40;;;;;;;21.75;14.48;;;12.00;99.90;;;;;;4976144;28;20069;-84
2022/03/16 10:15:12;;;;;;;18.08;13.00;;;12.50;96.30;;;;;;4974950;28;20105;-84
2022/03/16 10:17:45;;;;;;;17.10;12.60;;;12.60;94.30;;;;;;4976151;28;20042;-84
2022/03/16 10:20:32;;;;;;;18.20;12.05;;;12.80;94.20;;;;;;4976288;28;20133;-84
2022/03/16 10:23:14;;;;;;;20.48;12.48;;;13.00;93.10;;;;;;4976044;28;20054;-85
2022/03/16 10:25:43;;;;;;;15.85;11.13;;;13.30;90.50;;;;;;4975821;28;20506;-84
2022/03/16 10:28:11;;;;;;;18.27;11.73;;;13.50;92.00;;;;;;4960078;28;20522;-84
2022/03/16 10:30:58;;;;;;;15.32;11.40;;;13.80;90.60;;;;;;4960113;28;20054;-85
2022/03/16 10:33:33;;;;;;;19.77;12.20;;;14.00;89.80;;;;;;4974465;28;20054;-85
2022/03/16 10:36:04;;;;;;;18.42;12.45;;;14.20;85.70;;;;;;4974313;28;20137;-83
2022/03/16 10:38:39;;;;;;;16.25;11.32;;;14.30;83.30;;;;;;4958335;28;20050;-87
2022/03/16 10:41:14;;;;;;;15.52;11.43;;;14.40;81.80;;;;;;4957929;28;20101;-86
2022/03/16 10:46:40;;;;;;;13.75;10.65;;;14.60;80.90;;;;;;4962082;28;20053;-83
2022/03/16 10:49:12;;;;;;;18.38;11.52;;;14.70;80.40;;;;;;4991901;28;20750;-85
2022/03/16 10:51:38;;;;;;;14.60;10.63;;;14.80;77.90;;;;;;4959485;28;20050;-86
2022/03/16 10:54:05;;;;;;;19.83;12.77;;;14.80;79.00;;;;;;4943826;28;20589;-87
2022/03/16 10:56:32;;;;;;;21.40;12.95;;;15.20;77.80;;;;;;4959746;28;20038;-84
2022/03/16 10:58:59;;;;;;;19.00;11.88;;;15.30;75.40;;;;;;4943460;28;20105;-84
2022/03/16 11:01:27;;;;;;;20.35;12.15;;;15.50;73.10;;;;;;4975923;28;20050;-86
2022/03/16 11:03:58;;;;;;;17.98;11.25;;;15.70;72.10;;;;;;4957046;28;20113;-84
2022/03/16 11:06:25;;;;;;;16.83;12.07;;;16.10;71.20;;;;;;4959951;28;20042;-83
2022/03/16 11:08:52;;;;;;;17.60;11.80;;;16.40;69.20;;;;;;4975330;28;20085;-84
2022/03/16 11:14:04;;;;;;;16.90;12.05;;;17.10;65.50;;;;;;4978233;28;20054;-84
2022/03/16 11:16:31;;;;;;;16.08;11.20;;;17.80;64.10;;;;;;4943699;28;20128;-86
2022/03/16 11:19:04;;;;;;;15.82;12.05;;;18.10;61.50;;;;;;4959376;28;20050;-88
2022/03/16 11:21:48;;;;;;;17.88;12.32;;;18.50;61.30;;;;;;4958784;28;20089;-85
2022/03/16 11:24:23;;;;;;;16.70;11.57;;;18.90;56.30;;;;;;4974449;28;20046;-84
2022/03/16 11:27:09;;;;;;;15.38;11.23;;;19.40;57.70;;;;;;4974238;28;20046;-85
2022/03/16 11:29:54;;;;;;;16.25;11.20;;;20.00;54.30;;;;;;4959786;28;20054;-84
2022/03/16 11:32:20;;;;;;;15.68;11.18;;;20.50;53.00;;;;;;4959962;28;20053;-84
2022/03/16 11:34:55;;;;;;;13.98;11.30;;;21.00;51.60;;;;;;4959972;28;20043;-84
2022/03/16 11:37:33;;;;;;;15.73;11.25;;;21.60;49.10;;;;;;4976095;28;20141;-84
2022/03/16 11:40:11;;;;;;;16.00;11.70;;;21.90;49.80;;;;;;4992306;28;20047;-84
2022/03/16 11:43:04;;;;;;;14.18;11.23;;;22.30;48.40;;;;;;4976380;28;20050;-84
2022/03/16 11:45:36;;;;;;;13.30;11.00;;;22.70;46.50;;;;;;4960345;28;20047;-84
2022/03/16 11:48:28;;;;;;;16.90;12.10;;;22.70;44.90;;;;;;4959537;28;20057;-82
2022/03/16 11:51:09;;;;;;;14.25;10.80;;;22.70;43.50;;;;;;4974771;28;20073;-82
2022/03/16 11:53:44;;;;;;;15.07;10.05;;;23.10;43.40;;;;;;4960423;28;20047;-83
2022/03/16 11:56:21;;;;;;;12.77;9.57;;;23.20;41.20;;;;;;4962620;28;20042;-82
2022/03/16 11:58:48;;;;;;;13.85;9.63;;;23.20;39.90;;;;;;4978481;28;20055;-82
2022/03/16 12:01:28;;;;;;;16.40;10.05;;;23.20;42.20;;;;;;4962572;28;20089;-82
2022/03/16 12:04:08;;;;;;;14.27;10.27;;;23.40;41.40;;;;;;4978439;28;20093;-82
2022/03/16 12:06:54;;;;;;;12.15;9.77;;;23.90;39.80;;;;;;4963518;28;20046;-83
2022/03/16 12:09:52;;;;;;;12.57;10.38;;;24.20;35.70;;;;;;4961780;28;20093;-82
2022/03/16 12:15:12;;;;;;;12.48;10.07;;;24.30;38.00;;;;;;4965125;28;20081;-83
2022/03/16 12:17:40;;;;;;;10.93;8.93;;;24.60;38.20;;;;;;4962683;28;20097;-83
2022/03/16 12:20:11;;;;;;;14.63;10.15;;;24.80;37.00;;;;;;4962373;28;20128;-83
2022/03/16 12:22:38;;;;;;;12.02;10.10;;;24.80;35.80;;;;;;4963129;28;20077;-83
2022/03/16 12:25:26;;;;;;;14.15;10.35;;;24.80;36.10;;;;;;4962215;28;20039;-85
2022/03/16 12:31:11;;;;;;;15.82;11.18;;;24.90;33.30;;;;;;4978258;28;20046;-82
2022/03/16 12:33:40;;;;;;;14.13;11.05;;;25.00;35.50;;;;;;4961595;28;20085;-83
2022/03/16 12:36:10;;;;;;;15.38;11.30;;;25.10;35.40;;;;;;4978187;28;20121;-81
2022/03/16 12:38:39;;;;;;;15.77;11.55;;;25.30;34.80;;;;;;4946978;28;20081;-83
2022/03/16 12:43:56;;;;;;;13.23;11.07;;;25.50;34.40;;;;;;4963983;28;20085;-83
2022/03/16 12:46:34;;;;;;;13.63;11.05;;;25.90;34.60;;;;;;4961409;28;20039;-82
2022/03/16 12:49:13;;;;;;;16.13;11.88;;;25.90;32.40;;;;;;4978424;28;20093;-82
2022/03/16 12:51:43;;;;;;;15.73;11.77;;;25.60;33.80;;;;;;4962263;28;20522;-81
2022/03/16 12:54:10;;;;;;;15.85;12.27;;;25.50;33.40;;;;;;4962064;28;20507;-82
2022/03/16 12:56:46;;;;;;;14.88;11.48;;;25.50;33.50;;;;;;4961393;28;20046;-83
2022/03/16 12:59:12;;;;;;;14.65;12.13;;;25.60;32.20;;;;;;4961360;28;20050;-82
2022/03/16 13:01:38;;;;;;;16.10;12.40;;;25.40;32.80;;;;;;4962413;28;20085;-82
2022/03/16 13:04:06;;;;;;;14.70;11.90;;;25.30;32.70;;;;;;4961243;28;20098;-83
2022/03/16 13:06:33;;;;;;;15.10;12.05;;;25.30;32.90;;;;;;4977573;28;20054;-82
2022/03/16 13:09:09;;;;;;;18.27;13.82;;;25.70;33.40;;;;;;4961251;28;20054;-83
2022/03/16 13:11:39;;;;;;;16.42;13.07;;;25.90;31.10;;;;;;4977237;28;20058;-86
2022/03/16 13:14:13;;;;;;;16.83;12.23;;;26.00;32.20;;;;;;4959957;28;20042;-86
2022/03/16 13:16:47;;;;;;;16.50;11.90;;;26.20;31.90;;;;;;4960629;28;20054;-84
2022/03/16 13:19:25;;;;;;;14.63;11.75;;;26.10;31.00;;;;;;4971633;28;20053;-83
2022/03/16 13:22:06;;;;;;;15.30;12.02;;;25.90;31.20;;;;;;4995802;28;20092;-82
2022/03/16 13:24:46;;;;;;;16.38;13.00;;;25.50;31.20;;;;;;4978910;28;20498;-83
2022/03/16 13:27:16;;;;;;;16.83;12.88;;;25.20;31.10;;;;;;4995102;28;20124;-84
2022/03/16 13:29:44;;;;;;;14.85;11.88;;;25.30;32.20;;;;;;4979184;28;20105;-83
2022/03/16 13:32:11;;;;;;;16.85;13.50;;;24.90;32.20;;;;;;4994868;28;20050;-84
2022/03/16 13:34:41;;;;;;;16.60;13.02;;;24.60;32.80;;;;;;5011632;28;20049;-83
2022/03/16 13:37:34;;;;;;;16.98;12.65;;;23.90;33.50;;;;;;4978441;28;20100;-83
2022/03/16 13:40:06;;;;;;;18.98;13.95;;;22.70;35.10;;;;;;5010982;28;20072;-84
2022/03/16 13:42:33;;;;;;;19.23;13.80;;;21.80;36.80;;;;;;4978853;28;20056;-82
2022/03/16 13:45:11;;;;;;;21.08;15.05;;;21.80;37.20;;;;;;4978343;28;20050;-84
2022/03/16 13:47:37;;;;;;;18.48;14.00;;;22.60;36.70;;;;;;4994438;28;20054;-83
2022/03/16 13:50:03;;;;;;;19.70;13.95;;;22.90;36.00;;;;;;4978160;28;20038;-84
2022/03/16 13:52:39;;;;;;;19.23;13.40;;;22.60;36.10;;;;;;4962756;28;20133;-83
2022/03/16 13:55:13;;;;;;;16.15;13.10;;;22.50;36.40;;;;;;4963441;28;20092;-88
2022/03/16 13:57:43;;;;;;;18.55;13.63;;;22.40;36.20;;;;;;4994751;28;20056;-85
2022/03/16 14:00:11;;;;;;;18.17;13.77;;;22.20;36.80;;;;;;4995049;28;20112;-84
2022/03/16 14:02:38;;;;;;;18.60;14.48;;;22.00;37.10;;;;;;4975419;28;20161;-85
2022/03/16 14:05:15;;;;;;;18.67;14.25;;;21.50;37.60;;;;;;4958354;28;20062;-83
2022/03/16 14:07:47;;;;;;;20.58;15.63;;;21.00;38.00;;;;;;4975398;28;20054;-83
2022/03/16 14:10:18;;;;;;;19.92;14.93;;;20.20;39.10;;;;;;4974631;28;20046;-83
2022/03/16 14:12:44;;;;;;;21.88;16.00;;;19.30;41.10;;;;;;4959870;28;20101;-83
2022/03/16 14:15:20;;;;;;;19.08;14.43;;;18.70;42.20;;;;;;4958356;28;20057;-86
2022/03/16 14:17:46;;;;;;;21.40;15.82;;;18.60;43.20;;;;;;4958215;28;20468;-86
2022/03/16 14:20:19;;;;;;;23.70;15.55;;;18.40;43.40;;;;;;4971397;28;20082;-83
2022/03/16 14:22:50;;;;;;;24.13;15.27;;;18.50;43.40;;;;;;4956150;28;20485;-87
2022/03/16 14:25:25;;;;;;;19.88;15.20;;;18.80;43.60;;;;;;4954814;28;20082;-84
2022/03/16 14:27:56;;;;;;;23.02;15.77;;;18.80;43.20;;;;;;4955387;28;20161;-83
2022/03/16 14:30:28;;;;;;;20.95;15.52;;;18.50;43.40;;;;;;4939217;28;20058;-83
2022/03/16 14:33:06;;;;;;;21.98;14.82;;;18.10;44.50;;;;;;4939806;28;20718;-88
2022/03/16 14:35:36;;;;;;;21.42;15.05;;;17.60;45.30;;;;;;4955537;28;20039;-84
2022/03/16 14:38:05;;;;;;;21.38;15.60;;;17.10;46.20;;;;;;4939423;28;20133;-83
2022/03/16 14:40:33;;;;;;;22.83;16.75;;;16.80;47.10;;;;;;4939482;28;20055;-84
2022/03/16 14:42:58;;;;;;;24.98;15.88;;;16.60;47.90;;;;;;4923352;28;20105;-89
2022/03/16 14:45:25;;;;;;;24.45;16.85;;;16.40;48.40;;;;;;4939212;28;20054;-83
2022/03/16 14:47:51;;;;;;;26.67;16.63;;;16.20;49.10;;;;;;4955507;28;20117;-84
2022/03/16 14:50:23;;;;;;;25.23;17.15;;;16.00;49.80;;;;;;4922813;28;20050;-83
2022/03/16 14:52:50;;;;;;;26.33;17.35;;;15.80;51.40;;;;;;4938595;28;20046;-83
2022/03/16 14:55:16;;;;;;;23.55;16.83;;;15.60;51.10;;;;;;4938333;28;20571;-84
2022/03/16 14:57:42;;;;;;;30.10;17.92;;;15.50;51.90;;;;;;4938688;28;20046;-83